Time;durP1;ratioP1;P1;durP2;ratioP2;P2;SDS_P1;SDS_P2;PMS_P1;PMS_P2;Temp;Humidity;BMP_temperature;BMP_pressure;BME280_temperature;BME280_humidity;BME280_pressure;Samples;Min_cycle;Max_cycle;Signal;HPM_P1;HPM_P2
2022/10/27 00:01:02;;;;;;;9.40;6.73;;;11.70;99.90;;;;;;5248944;28;20289;-49
2022/10/27 00:03:32;;;;;;;8.80;5.90;;;11.60;99.90;;;;;;5246116;28;20263;-51
2022/10/27 00:06:05;;;;;;;5.73;5.30;;;11.60;99.90;;;;;;5249273;28;20183;-50
2022/10/27 00:08:36;;;;;;;7.03;5.60;;;11.60;99.90;;;;;;5237247;28;20571;-52
2022/10/27 00:11:07;;;;;;;5.37;4.97;;;11.60;99.90;;;;;;5249576;28;20496;-51
2022/10/27 00:13:37;;;;;;;4.67;4.37;;;11.70;99.90;;;;;;5252634;28;20822;-53
2022/10/27 00:16:14;;;;;;;4.83;4.40;;;11.50;99.90;;;;;;5255424;28;20190;-50
2022/10/27 00:18:45;;;;;;;5.03;4.50;;;11.50;99.90;;;;;;5247546;28;20272;-49
2022/10/27 00:21:18;;;;;;;4.33;4.03;;;11.50;99.90;;;;;;5246684;28;20468;-52
2022/10/27 00:23:50;;;;;;;6.07;5.27;;;11.50;99.90;;;;;;5247571;28;20505;-50
2022/10/27 00:26:21;;;;;;;4.50;4.10;;;11.40;99.90;;;;;;5256306;28;20464;-50
2022/10/27 00:28:51;;;;;;;4.77;4.23;;;11.40;99.90;;;;;;5255115;28;20428;-49
2022/10/27 00:31:22;;;;;;;7.10;4.60;;;11.40;99.90;;;;;;5254160;28;20448;-49
2022/10/27 00:33:52;;;;;;;7.43;4.73;;;11.40;99.90;;;;;;5253086;28;20186;-51
2022/10/27 00:36:24;;;;;;;5.20;4.80;;;11.40;99.90;;;;;;5238256;28;20226;-49
2022/10/27 00:38:56;;;;;;;4.23;3.93;;;11.40;99.90;;;;;;5244630;28;20236;-50
2022/10/27 00:41:28;;;;;;;4.10;3.80;;;11.30;99.90;;;;;;5243592;28;20460;-51
2022/10/27 00:44:02;;;;;;;4.40;4.13;;;11.40;99.90;;;;;;5235131;28;20437;-50
2022/10/27 00:46:42;;;;;;;4.87;4.50;;;11.30;99.90;;;;;;5240941;28;20429;-51
2022/10/27 00:49:17;;;;;;;8.00;5.20;;;11.30;99.90;;;;;;5245404;28;20432;-49
2022/10/27 00:51:51;;;;;;;5.63;4.13;;;11.30;99.90;;;;;;5245276;28;20459;-50
2022/10/27 00:54:23;;;;;;;5.37;4.10;;;11.40;99.90;;;;;;5247590;28;20943;-51
2022/10/27 00:56:54;;;;;;;5.80;4.00;;;11.30;99.90;;;;;;5260479;28;20436;-50
2022/10/27 00:59:25;;;;;;;4.10;3.80;;;11.40;99.90;;;;;;5242021;28;20573;-49
2022/10/27 01:01:56;;;;;;;5.13;4.70;;;11.30;99.90;;;;;;5241185;28;20625;-50
2022/10/27 01:04:32;;;;;;;4.50;4.20;;;11.30;99.90;;;;;;5247794;28;20658;-51
2022/10/27 01:07:03;;;;;;;9.83;4.50;;;11.40;99.90;;;;;;5236682;28;20179;-50
2022/10/27 01:09:33;;;;;;;4.90;4.17;;;11.30;99.90;;;;;;5245034;28;20940;-51
2022/10/27 01:12:04;;;;;;;4.20;4.00;;;11.30;99.90;;;;;;5246026;28;20986;-50
2022/10/27 01:14:35;;;;;;;5.57;4.63;;;11.30;99.90;;;;;;5245129;28;20197;-50
2022/10/27 01:17:27;;;;;;;6.30;3.93;;;11.30;99.90;;;;;;5245794;28;20256;-50
2022/10/27 01:20:22;;;;;;;6.00;4.40;;;11.30;99.90;;;;;;5244270;28;20432;-49
2022/10/27 01:23:10;;;;;;;4.73;4.40;;;11.30;99.90;;;;;;5241382;28;20471;-51
2022/10/27 01:25:50;;;;;;;6.23;4.73;;;11.30;99.90;;;;;;5241744;28;20440;-50
2022/10/27 01:28:48;;;;;;;6.90;4.80;;;11.30;99.90;;;;;;5241640;28;20432;-50
2022/10/27 01:31:45;;;;;;;5.10;4.70;;;11.30;99.90;;;;;;5243808;28;20552;-50
2022/10/27 01:34:24;;;;;;;7.47;5.60;;;11.30;99.90;;;;;;5247324;28;20864;-50
2022/10/27 01:37:05;;;;;;;5.77;5.00;;;11.30;99.90;;;;;;5250602;28;20436;-50
2022/10/27 01:39:49;;;;;;;8.07;5.17;;;11.30;99.90;;;;;;5265818;28;20463;-50
2022/10/27 01:42:28;;;;;;;7.07;5.60;;;11.30;99.90;;;;;;5242365;28;20572;-50
2022/10/27 01:45:01;;;;;;;8.87;5.90;;;11.30;99.90;;;;;;5247012;28;20628;-49
2022/10/27 01:47:32;;;;;;;5.80;5.40;;;11.30;99.90;;;;;;5244672;28;20437;-50
2022/10/27 01:50:03;;;;;;;5.63;5.00;;;11.30;99.90;;;;;;5248341;28;20435;-50
2022/10/27 01:52:44;;;;;;;6.23;5.60;;;11.30;99.90;;;;;;5248443;28;20463;-52
2022/10/27 01:55:36;;;;;;;5.57;5.07;;;11.20;99.90;;;;;;5251073;28;20519;-49
2022/10/27 01:58:26;;;;;;;6.20;5.27;;;11.30;99.90;;;;;;5258183;28;20786;-51
2022/10/27 02:01:03;;;;;;;5.27;4.57;;;11.20;99.90;;;;;;5243210;28;20550;-49
2022/10/27 02:04:04;;;;;;;4.87;4.47;;;11.20;99.90;;;;;;5267041;28;20460;-50
2022/10/27 02:06:40;;;;;;;6.33;5.17;;;11.20;99.90;;;;;;5252397;28;20444;-50
2022/10/27 02:09:23;;;;;;;8.20;4.70;;;11.10;99.90;;;;;;5237833;28;20936;-49
2022/10/27 02:11:57;;;;;;;4.67;4.27;;;11.10;99.90;;;;;;5251271;28;20456;-52
2022/10/27 02:14:27;;;;;;;7.77;5.43;;;11.10;99.90;;;;;;5255877;28;20428;-51
2022/10/27 02:16:59;;;;;;;8.87;6.10;;;11.10;99.90;;;;;;5250733;28;20875;-51
2022/10/27 02:19:36;;;;;;;5.50;5.10;;;11.10;99.90;;;;;;5243474;28;20179;-48
2022/10/27 02:22:07;;;;;;;4.90;4.57;;;11.10;99.90;;;;;;5245264;28;20827;-50
2022/10/27 02:24:38;;;;;;;5.53;5.10;;;11.10;99.90;;;;;;5245375;28;20955;-49
2022/10/27 02:27:43;;;;;;;11.23;6.23;;;11.10;99.90;;;;;;5265605;28;20459;-50
2022/10/27 02:30:13;;;;;;;6.07;5.60;;;11.00;99.90;;;;;;5250328;28;20705;-50
2022/10/27 02:32:45;;;;;;;7.27;6.17;;;11.00;99.90;;;;;;5249953;28;20531;-49
2022/10/27 02:35:16;;;;;;;8.83;6.10;;;11.00;99.90;;;;;;5251292;28;20276;-49
2022/10/27 02:37:47;;;;;;;5.27;4.90;;;11.00;99.90;;;;;;5250222;28;20520;-49
2022/10/27 02:40:17;;;;;;;10.77;6.90;;;11.00;99.90;;;;;;5258253;28;20208;-49
2022/10/27 02:42:48;;;;;;;7.27;5.57;;;11.00;99.90;;;;;;5247846;28;20198;-50
2022/10/27 02:45:19;;;;;;;7.80;6.03;;;11.00;99.90;;;;;;5245863;28;20662;-50
2022/10/27 02:47:49;;;;;;;7.90;5.30;;;11.00;99.90;;;;;;5247547;28;20185;-51
2022/10/27 02:50:20;;;;;;;8.03;6.17;;;11.00;99.90;;;;;;5250267;28;21008;-50
2022/10/27 02:52:50;;;;;;;6.70;6.10;;;11.00;99.90;;;;;;5247386;28;20198;-51
2022/10/27 02:55:21;;;;;;;5.13;4.83;;;11.00;99.90;;;;;;5249873;28;20189;-51
2022/10/27 02:57:51;;;;;;;7.87;7.10;;;11.00;99.90;;;;;;5245105;28;20179;-49
2022/10/27 03:00:22;;;;;;;6.60;6.00;;;11.00;99.90;;;;;;5242326;28;20171;-50
2022/10/27 03:02:52;;;;;;;6.37;5.80;;;11.00;99.90;;;;;;5246078;28;20218;-50
2022/10/27 03:05:23;;;;;;;7.40;6.47;;;11.00;99.90;;;;;;5242719;28;20243;-50
2022/10/27 03:07:53;;;;;;;6.23;5.73;;;11.00;99.90;;;;;;5251899;28;20258;-50
2022/10/27 03:10:24;;;;;;;4.70;4.40;;;11.00;99.90;;;;;;5247657;28;20269;-50
2022/10/27 03:12:55;;;;;;;5.73;5.20;;;11.10;99.90;;;;;;5254780;28;20190;-50
2022/10/27 03:15:25;;;;;;;5.80;5.20;;;11.00;99.90;;;;;;5253033;28;20268;-52
2022/10/27 03:17:56;;;;;;;5.37;4.83;;;11.00;99.90;;;;;;5250452;28;20235;-51
2022/10/27 03:20:26;;;;;;;6.50;5.90;;;11.00;99.90;;;;;;5270789;28;20225;-51
2022/10/27 03:22:57;;;;;;;5.87;5.47;;;11.00;99.90;;;;;;5251995;28;20205;-53
2022/10/27 03:25:28;;;;;;;5.63;5.20;;;11.00;99.90;;;;;;5253611;28;20186;-55
2022/10/27 03:27:58;;;;;;;7.17;6.47;;;11.00;99.90;;;;;;5250771;28;20178;-50
2022/10/27 03:30:29;;;;;;;7.00;5.73;;;10.90;99.90;;;;;;5252929;28;20198;-50
2022/10/27 03:33:00;;;;;;;6.13;5.53;;;10.90;99.90;;;;;;5265767;28;20206;-49
2022/10/27 03:35:31;;;;;;;6.07;5.47;;;10.90;99.90;;;;;;5251737;28;20182;-48
2022/10/27 03:38:02;;;;;;;5.30;4.80;;;11.00;99.90;;;;;;5252022;28;20426;-51
2022/10/27 03:40:32;;;;;;;5.00;4.60;;;10.90;99.90;;;;;;5265674;28;20202;-49
2022/10/27 03:43:03;;;;;;;5.97;5.37;;;10.90;99.90;;;;;;5247082;28;20210;-50
2022/10/27 03:45:34;;;;;;;6.73;4.77;;;10.90;99.90;;;;;;5246293;28;20253;-51
2022/10/27 03:48:07;;;;;;;5.43;4.93;;;10.90;99.90;;;;;;5239007;28;20213;-50
2022/10/27 03:50:38;;;;;;;7.63;5.40;;;10.80;99.90;;;;;;5245601;28;20264;-53
2022/10/27 03:53:09;;;;;;;5.00;4.70;;;10.90;99.90;;;;;;5248694;28;21017;-50
2022/10/27 03:55:39;;;;;;;6.03;5.53;;;10.80;99.90;;;;;;5249240;28;20528;-51
2022/10/27 03:58:15;;;;;;;5.83;5.33;;;10.80;99.90;;;;;;5248017;28;20206;-52
2022/10/27 04:00:46;;;;;;;5.40;5.00;;;10.80;99.90;;;;;;5244469;28;20216;-50
2022/10/27 04:03:17;;;;;;;6.47;5.97;;;10.80;99.90;;;;;;5274093;22;20487;-46
2022/10/27 04:05:51;;;;;;;5.77;5.23;;;10.80;99.90;;;;;;5266133;28;20815;-47
2022/10/27 04:08:26;;;;;;;6.03;5.13;;;10.90;99.90;;;;;;5248061;28;20653;-48
2022/10/27 04:11:04;;;;;;;6.60;6.00;;;10.80;99.90;;;;;;5261428;28;20444;-50
2022/10/27 04:13:39;;;;;;;8.00;5.70;;;10.80;99.90;;;;;;5262783;28;20988;-47
2022/10/27 04:16:10;;;;;;;6.63;5.87;;;10.80;99.90;;;;;;5257533;28;20437;-46
2022/10/27 04:18:41;;;;;;;6.10;5.57;;;10.80;99.90;;;;;;5256103;28;20440;-48
2022/10/27 04:21:12;;;;;;;5.80;5.30;;;10.80;99.90;;;;;;5256740;28;20280;-47
2022/10/27 04:23:43;;;;;;;10.13;6.37;;;10.80;99.90;;;;;;5257878;28;20211;-47
2022/10/27 04:26:14;;;;;;;7.17;6.57;;;10.80;99.90;;;;;;5266617;28;20178;-50
2022/10/27 04:28:45;;;;;;;7.40;6.70;;;10.80;99.90;;;;;;5259529;28;20466;-48
2022/10/27 04:31:15;;;;;;;7.60;6.53;;;10.80;99.90;;;;;;5253040;28;20652;-47
2022/10/27 04:33:46;;;;;;;7.13;6.30;;;10.80;99.90;;;;;;5255284;28;20205;-48
2022/10/27 04:36:17;;;;;;;7.43;6.03;;;10.80;99.90;;;;;;5264653;28;20531;-47
2022/10/27 04:38:49;;;;;;;7.30;6.60;;;10.80;99.90;;;;;;5258622;28;20428;-49
2022/10/27 04:41:20;;;;;;;6.97;6.27;;;10.80;99.90;;;;;;5264625;28;20201;-48
2022/10/27 04:43:51;;;;;;;5.60;5.20;;;10.80;99.90;;;;;;5266580;28;20466;-47
2022/10/27 04:46:22;;;;;;;5.80;5.40;;;10.80;99.90;;;;;;5266653;28;20781;-49
2022/10/27 04:48:52;;;;;;;6.23;5.67;;;10.80;99.90;;;;;;5261849;28;20488;-48
2022/10/27 04:51:25;;;;;;;6.43;5.90;;;10.80;99.90;;;;;;5258425;28;20444;-48
2022/10/27 04:53:55;;;;;;;6.57;5.97;;;10.80;99.90;;;;;;5263479;28;20535;-51
2022/10/27 04:56:27;;;;;;;6.73;6.10;;;10.80;99.90;;;;;;5264713;28;20442;-49
2022/10/27 04:58:58;;;;;;;10.17;8.60;;;10.80;99.90;;;;;;5271349;28;20189;-47
2022/10/27 05:01:29;;;;;;;7.67;6.97;;;10.80;99.90;;;;;;5264544;28;20455;-50
2022/10/27 05:04:00;;;;;;;8.77;7.80;;;10.80;99.90;;;;;;5261616;28;20292;-47
2022/10/27 05:06:31;;;;;;;8.10;6.70;;;10.80;99.90;;;;;;5264698;28;20170;-47
2022/10/27 05:09:02;;;;;;;7.40;6.73;;;10.80;99.90;;;;;;5260076;28;20177;-48
2022/10/27 05:11:33;;;;;;;8.30;6.70;;;10.80;99.90;;;;;;5260722;28;20852;-47
2022/10/27 05:14:05;;;;;;;7.50;6.73;;;10.80;99.90;;;;;;5238023;28;20507;-50
2022/10/27 05:16:36;;;;;;;7.37;6.77;;;10.80;99.90;;;;;;5263005;28;20496;-48
2022/10/27 05:19:06;;;;;;;7.30;6.60;;;10.80;99.90;;;;;;5257160;28;20931;-48
2022/10/27 05:21:37;;;;;;;6.53;6.03;;;10.90;99.90;;;;;;5257479;28;20232;-50
2022/10/27 05:24:08;;;;;;;6.43;5.67;;;10.80;99.90;;;;;;5260286;28;20173;-48
2022/10/27 05:26:39;;;;;;;6.47;5.87;;;10.80;99.90;;;;;;5256796;28;20178;-48
2022/10/27 05:29:10;;;;;;;6.53;5.70;;;10.80;99.90;;;;;;5248868;28;20432;-49
2022/10/27 05:31:41;;;;;;;6.30;5.90;;;10.80;99.90;;;;;;5256846;28;20455;-50
2022/10/27 05:34:12;;;;;;;7.37;6.60;;;10.80;99.90;;;;;;5244006;28;20202;-51
2022/10/27 05:36:43;;;;;;;6.90;6.13;;;10.80;99.90;;;;;;5259529;28;20182;-52
2022/10/27 05:39:14;;;;;;;7.40;6.77;;;10.80;99.90;;;;;;5261933;28;20454;-48
2022/10/27 05:41:45;;;;;;;11.60;7.90;;;10.80;99.90;;;;;;5263282;28;20241;-48
2022/10/27 05:44:16;;;;;;;13.27;9.80;;;10.80;99.90;;;;;;5252922;28;20554;-51
2022/10/27 05:46:47;;;;;;;13.00;8.70;;;10.80;99.90;;;;;;5241959;28;20543;-47
2022/10/27 05:49:17;;;;;;;14.30;10.40;;;10.90;99.90;;;;;;5265789;28;20185;-48
2022/10/27 05:51:49;;;;;;;15.73;9.50;;;10.80;99.90;;;;;;5265702;28;20505;-47
2022/10/27 05:54:20;;;;;;;9.83;8.30;;;10.90;99.90;;;;;;5260824;28;20174;-47
2022/10/27 05:56:51;;;;;;;10.53;9.00;;;10.80;99.90;;;;;;5265524;28;20446;-46
2022/10/27 05:59:21;;;;;;;15.83;11.30;;;10.80;99.90;;;;;;5263281;28;20197;-49
2022/10/27 06:01:52;;;;;;;17.63;12.80;;;10.90;99.90;;;;;;5261770;28;20221;-48
2022/10/27 06:04:23;;;;;;;16.67;11.67;;;10.90;99.90;;;;;;5258457;28;20186;-48
2022/10/27 06:06:54;;;;;;;13.13;10.30;;;10.90;99.90;;;;;;5259696;28;20213;-48
2022/10/27 06:09:25;;;;;;;22.30;10.93;;;11.00;99.90;;;;;;5265119;28;20955;-50
2022/10/27 06:11:59;;;;;;;16.63;9.90;;;11.00;99.90;;;;;;5259045;28;20211;-48
2022/10/27 06:14:30;;;;;;;10.37;9.27;;;11.10;99.90;;;;;;5259044;28;20178;-47
2022/10/27 06:17:07;;;;;;;16.93;11.20;;;11.10;99.90;;;;;;5258191;28;20438;-49
2022/10/27 06:19:41;;;;;;;17.43;11.47;;;11.20;99.90;;;;;;5258950;28;20189;-49
2022/10/27 06:22:17;;;;;;;13.70;10.23;;;11.20;99.90;;;;;;5263372;28;20467;-48
2022/10/27 06:24:55;;;;;;;13.57;9.93;;;11.30;99.90;;;;;;5262024;28;20439;-48
2022/10/27 06:27:31;;;;;;;12.70;9.93;;;11.40;99.90;;;;;;5263386;28;20528;-49
2022/10/27 06:30:08;;;;;;;16.20;10.20;;;11.50;99.90;;;;;;5261129;28;22420;-51
2022/10/27 06:32:40;;;;;;;15.90;10.57;;;11.90;99.90;;;;;;5262735;28;20825;-48
2022/10/27 06:35:11;;;;;;;10.00;8.93;;;12.20;99.90;;;;;;5265759;28;21016;-51
2022/10/27 06:37:44;;;;;;;9.70;8.73;;;12.60;99.90;;;;;;5263895;28;20441;-50
2022/10/27 06:40:17;;;;;;;8.90;7.80;;;12.90;99.90;;;;;;5267981;28;20478;-50
2022/10/27 06:42:49;;;;;;;11.10;9.90;;;13.10;99.90;;;;;;5267358;28;20470;-52
2022/10/27 06:45:20;;;;;;;11.83;8.83;;;13.40;99.90;;;;;;5264244;28;20440;-51
2022/10/27 06:47:56;;;;;;;10.07;7.80;;;13.70;99.90;;;;;;5264133;28;20454;-51
2022/10/27 06:50:31;;;;;;;15.70;8.67;;;14.00;99.90;;;;;;5248095;28;20450;-51
2022/10/27 06:53:06;;;;;;;12.67;8.37;;;14.20;99.90;;;;;;5266254;28;20455;-52
2022/10/27 06:55:37;;;;;;;8.00;7.20;;;14.30;99.90;;;;;;5266498;28;20833;-52
2022/10/27 06:58:08;;;;;;;15.30;7.53;;;14.30;99.90;;;;;;5262111;28;20436;-51
2022/10/27 07:00:39;;;;;;;8.40;5.83;;;14.40;99.90;;;;;;5255075;28;20804;-51
2022/10/27 07:03:10;;;;;;;20.57;6.93;;;14.90;99.90;;;;;;5256861;28;20215;-50
2022/10/27 07:05:47;;;;;;;9.10;6.47;;;15.70;99.90;;;;;;5260885;28;20435;-53
2022/10/27 07:08:18;;;;;;;7.23;5.20;;;16.70;99.90;;;;;;5261137;28;20185;-51
2022/10/27 07:10:49;;;;;;;11.17;6.40;;;17.10;99.90;;;;;;5252385;28;20648;-52
2022/10/27 07:13:19;;;;;;;7.80;5.30;;;16.70;99.90;;;;;;5259631;28;20210;-52
2022/10/27 07:15:50;;;;;;;8.97;6.60;;;16.30;99.90;;;;;;5258349;28;20454;-53
2022/10/27 07:18:23;;;;;;;30.90;6.00;;;15.80;99.90;;;;;;5264701;28;20201;-49
2022/10/27 07:20:54;;;;;;;10.90;6.77;;;15.30;99.90;;;;;;5242363;28;20205;-50
2022/10/27 07:23:25;;;;;;;5.90;5.30;;;15.00;99.90;;;;;;5260635;28;20455;-51
2022/10/27 07:25:56;;;;;;;9.37;6.10;;;14.70;99.90;;;;;;5257425;28;20493;-50
2022/10/27 07:28:26;;;;;;;7.00;4.03;;;14.60;99.90;;;;;;5263120;28;20653;-53
2022/10/27 07:30:57;;;;;;;8.07;5.80;;;14.50;99.90;;;;;;5265292;28;21026;-53
2022/10/27 07:33:28;;;;;;;6.33;5.70;;;14.50;99.90;;;;;;5266113;28;20289;-53
2022/10/27 07:35:59;;;;;;;7.93;5.00;;;14.50;99.90;;;;;;5264101;28;20216;-54
2022/10/27 07:38:29;;;;;;;10.30;5.40;;;14.50;99.90;;;;;;5267438;28;20194;-51
2022/10/27 07:41:00;;;;;;;5.90;5.30;;;14.60;99.90;;;;;;5262071;28;20288;-54
2022/10/27 07:43:31;;;;;;;10.80;6.07;;;14.60;99.90;;;;;;5263846;28;20209;-53
2022/10/27 07:46:02;;;;;;;9.70;6.13;;;14.70;99.90;;;;;;5267577;28;20181;-52
2022/10/27 07:48:32;;;;;;;6.60;5.27;;;14.90;99.90;;;;;;5264756;28;20170;-53
2022/10/27 07:51:03;;;;;;;19.00;7.30;;;15.00;99.90;;;;;;5264059;28;20189;-53
2022/10/27 07:53:34;;;;;;;5.90;5.33;;;15.10;99.90;;;;;;5268687;28;20213;-54
2022/10/27 07:56:05;;;;;;;23.53;6.27;;;15.30;99.90;;;;;;5246900;28;20178;-48
2022/10/27 07:58:36;;;;;;;6.03;5.40;;;15.30;99.90;;;;;;5255603;28;20246;-52
2022/10/27 08:01:07;;;;;;;10.47;5.90;;;15.50;99.90;;;;;;5265819;28;20466;-50
2022/10/27 08:03:38;;;;;;;5.17;4.80;;;15.70;99.90;;;;;;5266567;28;20671;-52
2022/10/27 08:06:08;;;;;;;5.27;4.90;;;15.80;99.90;;;;;;5266639;28;20177;-51
2022/10/27 08:08:39;;;;;;;16.53;6.97;;;15.90;99.90;;;;;;5266026;28;20638;-50
2022/10/27 08:11:10;;;;;;;15.90;5.30;;;16.00;99.90;;;;;;5262715;28;20189;-53
2022/10/27 08:13:41;;;;;;;19.03;5.23;;;16.20;99.90;;;;;;5262991;28;21031;-50
2022/10/27 08:16:12;;;;;;;8.77;5.50;;;16.30;99.90;;;;;;5265898;28;20181;-50
2022/10/27 08:18:43;;;;;;;9.13;5.33;;;16.30;99.90;;;;;;5265947;28;20493;-49
2022/10/27 08:21:14;;;;;;;7.93;5.77;;;16.30;99.90;;;;;;5261437;28;20708;-53
2022/10/27 08:23:45;;;;;;;9.43;5.30;;;16.40;99.90;;;;;;5259994;28;20208;-51
2022/10/27 08:26:15;;;;;;;5.00;4.50;;;16.30;99.90;;;;;;5265841;28;20519;-54
2022/10/27 08:28:47;;;;;;;10.67;5.30;;;16.30;99.90;;;;;;5266834;28;20186;-54
2022/10/27 08:31:18;;;;;;;7.20;5.17;;;16.30;99.90;;;;;;5264520;28;20177;-53
2022/10/27 08:33:50;;;;;;;6.00;5.40;;;16.20;99.90;;;;;;5265395;28;20455;-53
2022/10/27 08:36:21;;;;;;;19.37;5.93;;;16.10;99.90;;;;;;5262819;28;20439;-52
2022/10/27 08:38:51;;;;;;;5.77;5.03;;;16.10;99.90;;;;;;5262595;28;20512;-53
2022/10/27 08:41:39;;;;;;;4.07;3.80;;;16.20;99.90;;;;;;5266282;28;20513;-52
2022/10/27 08:44:14;;;;;;;7.20;5.33;;;16.20;99.90;;;;;;5258172;28;20224;-50
2022/10/27 08:46:52;;;;;;;9.40;5.33;;;16.40;99.90;;;;;;5264702;28;20442;-53
2022/10/27 08:49:34;;;;;;;5.10;4.60;;;16.50;99.90;;;;;;5260962;28;20442;-48
2022/10/27 08:52:27;;;;;;;5.67;5.17;;;16.50;99.90;;;;;;5265341;28;20527;-49
2022/10/27 08:55:24;;;;;;;6.00;4.70;;;16.70;99.90;;;;;;5263361;28;20505;-51
2022/10/27 08:58:04;;;;;;;4.67;4.33;;;16.80;99.90;;;;;;5263382;28;20443;-51
2022/10/27 09:00:58;;;;;;;6.50;4.37;;;16.90;99.90;;;;;;5262317;28;21021;-52
2022/10/27 09:04:02;;;;;;;6.37;4.27;;;17.00;99.90;;;;;;5275203;28;20474;-50
2022/10/27 09:06:40;;;;;;;3.87;3.57;;;17.10;99.90;;;;;;5263004;28;20428;-49
2022/10/27 09:09:47;;;;;;;4.90;4.27;;;17.20;99.90;;;;;;5259691;28;20428;-51
2022/10/27 09:12:23;;;;;;;4.80;4.40;;;17.40;99.90;;;;;;5182472;28;20462;-52
2022/10/27 09:15:12;;;;;;;5.43;4.23;;;17.50;99.90;;;;;;5257095;28;20569;-51
2022/10/27 09:18:00;;;;;;;5.60;5.03;;;17.60;99.90;;;;;;5258521;28;20436;-51
2022/10/27 09:20:43;;;;;;;6.90;4.20;;;17.70;99.90;;;;;;5263108;28;20435;-51
2022/10/27 09:23:21;;;;;;;4.77;4.47;;;17.80;99.90;;;;;;5255777;28;20444;-51
2022/10/27 09:25:53;;;;;;;4.60;4.20;;;17.90;99.90;;;;;;5279129;28;20424;-51
2022/10/27 09:28:48;;;;;;;9.53;5.00;;;17.90;99.90;;;;;;5263621;28;20436;-49
2022/10/27 09:31:24;;;;;;;5.50;4.10;;;18.00;99.90;;;;;;5263429;28;21051;-50
2022/10/27 09:34:23;;;;;;;6.00;4.40;;;18.00;99.90;;;;;;5255712;28;20470;-51
2022/10/27 09:36:54;;;;;;;13.57;4.53;;;18.00;99.90;;;;;;5210934;28;20439;-51
2022/10/27 09:39:25;;;;;;;5.73;5.13;;;18.10;99.90;;;;;;5263274;28;20440;-50
2022/10/27 09:41:56;;;;;;;6.30;3.80;;;18.20;99.90;;;;;;5258713;28;20482;-52
2022/10/27 09:44:28;;;;;;;6.23;4.50;;;18.20;99.90;;;;;;5253017;28;20194;-49
2022/10/27 09:46:59;;;;;;;5.43;3.73;;;18.30;99.90;;;;;;5262467;28;20447;-49
2022/10/27 09:49:42;;;;;;;3.30;3.10;;;18.30;99.90;;;;;;5256902;28;20955;-49
2022/10/27 09:52:24;;;;;;;8.77;4.73;;;18.40;99.90;;;;;;5257406;28;20201;-50
2022/10/27 09:54:56;;;;;;;12.03;4.60;;;18.40;99.90;;;;;;5252367;28;20431;-50
2022/10/27 09:57:33;;;;;;;5.53;3.83;;;18.40;99.90;;;;;;5263614;28;20469;-50
2022/10/27 10:00:22;;;;;;;10.27;5.17;;;18.40;99.90;;;;;;5268230;28;20443;-51
2022/10/27 10:03:01;;;;;;;4.30;3.93;;;18.40;99.90;;;;;;5280812;22;20535;-49
2022/10/27 10:05:34;;;;;;;6.10;4.10;;;18.50;99.90;;;;;;5204144;28;20836;-48
2022/10/27 10:08:24;;;;;;;4.00;3.30;;;18.50;99.90;;;;;;5226125;28;20631;-50
2022/10/27 10:11:01;;;;;;;2.50;2.30;;;18.60;99.90;;;;;;5222597;28;20529;-49
2022/10/27 10:13:36;;;;;;;13.40;4.90;;;18.70;99.90;;;;;;5231437;28;20993;-49
2022/10/27 10:16:14;;;;;;;14.63;6.10;;;18.90;99.90;;;;;;5221097;28;20440;-49
2022/10/27 10:19:05;;;;;;;15.43;5.33;;;19.00;99.90;;;;;;5222947;28;20436;-49
2022/10/27 10:21:49;;;;;;;10.93;5.17;;;19.10;99.90;;;;;;5215939;28;20476;-49
2022/10/27 10:24:29;;;;;;;5.40;3.30;;;19.20;99.90;;;;;;5239709;28;20449;-49
2022/10/27 10:27:03;;;;;;;6.00;3.57;;;19.20;99.90;;;;;;5236776;28;20437;-50
2022/10/27 10:29:47;;;;;;;6.73;4.57;;;19.40;99.90;;;;;;5219426;28;20430;-49
2022/10/27 10:32:21;;;;;;;10.93;4.60;;;19.70;99.90;;;;;;5224503;28;20460;-49
2022/10/27 10:34:55;;;;;;;8.60;4.13;;;19.70;99.90;;;;;;5214375;28;20840;-49
2022/10/27 10:37:36;;;;;;;4.57;3.70;;;19.80;99.90;;;;;;5223609;28;20471;-49
2022/10/27 10:40:23;;;;;;;4.63;3.93;;;19.80;99.90;;;;;;5223856;28;20437;-49
2022/10/27 10:43:03;;;;;;;2.87;2.70;;;19.80;99.90;;;;;;5222029;28;20468;-50
2022/10/27 10:45:34;;;;;;;4.00;2.80;;;20.00;99.90;;;;;;5215356;28;20442;-51
2022/10/27 10:48:45;;;;;;;7.53;3.83;;;19.90;99.90;;;;;;5212736;28;20514;-51
2022/10/27 10:51:25;;;;;;;4.50;3.83;;;19.90;99.90;;;;;;5221425;28;20433;-50
2022/10/27 10:54:05;;;;;;;5.37;4.10;;;20.00;99.90;;;;;;5221742;28;20463;-50
2022/10/27 10:56:36;;;;;;;3.60;3.40;;;20.00;99.90;;;;;;5216072;28;20445;-50
2022/10/27 10:59:12;;;;;;;9.70;4.77;;;19.90;99.90;;;;;;5220351;28;20448;-50
2022/10/27 11:02:01;;;;;;;4.70;3.30;;;19.80;99.90;;;;;;5222399;28;20517;-50
2022/10/27 11:04:41;;;;;;;5.27;3.13;;;19.60;99.90;;;;;;5225085;28;20437;-50
2022/10/27 11:07:32;;;;;;;5.57;3.67;;;19.60;99.90;;;;;;5224249;28;20804;-51
2022/10/27 11:10:14;;;;;;;4.93;3.80;;;19.70;99.90;;;;;;5225550;28;20441;-50
2022/10/27 11:13:05;;;;;;;9.43;2.90;;;19.60;99.90;;;;;;5221529;28;20483;-50
2022/10/27 11:15:51;;;;;;;11.90;3.50;;;19.60;99.90;;;;;;5220453;28;20425;-49
2022/10/27 11:18:29;;;;;;;4.83;3.80;;;19.60;99.90;;;;;;5224835;28;20421;-50
2022/10/27 11:21:14;;;;;;;5.30;3.73;;;19.70;99.90;;;;;;5224067;28;20457;-49
2022/10/27 11:23:58;;;;;;;3.37;3.17;;;19.70;99.90;;;;;;5226296;28;20582;-49
2022/10/27 11:26:37;;;;;;;5.80;3.40;;;19.90;99.90;;;;;;5223688;28;20438;-50
2022/10/27 11:29:07;;;;;;;2.90;2.70;;;19.90;99.90;;;;;;5221287;28;20517;-50
2022/10/27 11:31:41;;;;;;;9.13;3.93;;;19.90;99.90;;;;;;5224814;28;21032;-49
2022/10/27 11:34:22;;;;;;;5.90;3.00;;;19.90;99.90;;;;;;5222732;28;20565;-51
2022/10/27 11:37:15;;;;;;;22.43;3.20;;;20.00;99.90;;;;;;5222395;28;20429;-50
2022/10/27 11:40:05;;;;;;;4.90;2.80;;;20.20;99.90;;;;;;5216901;28;20441;-50
2022/10/27 11:42:50;;;;;;;6.13;2.90;;;20.20;99.90;;;;;;5224227;28;20489;-50
2022/10/27 11:45:31;;;;;;;3.93;2.80;;;20.20;99.90;;;;;;5217130;28;20434;-49
2022/10/27 11:48:12;;;;;;;4.00;2.80;;;20.10;99.90;;;;;;5222747;28;20430;-49
2022/10/27 11:51:02;;;;;;;5.40;2.50;;;20.00;99.90;;;;;;5221786;28;20437;-52
2022/10/27 11:53:33;;;;;;;12.93;3.30;;;20.00;99.90;;;;;;5221083;28;20511;-49
2022/10/27 11:56:22;;;;;;;4.17;2.60;;;20.10;99.90;;;;;;5220160;28;20437;-49
2022/10/27 11:59:04;;;;;;;6.30;2.90;;;20.20;99.90;;;;;;5218170;28;20179;-48
2022/10/27 12:01:51;;;;;;;7.87;2.73;;;20.20;99.90;;;;;;5211394;28;20454;-50
2022/10/27 12:04:30;;;;;;;5.50;2.90;;;20.30;99.90;;;;;;5224360;28;20456;-49
2022/10/27 12:07:14;;;;;;;3.93;2.73;;;20.20;99.90;;;;;;5221794;28;20485;-49
2022/10/27 12:10:03;;;;;;;3.53;3.03;;;20.10;99.90;;;;;;5223816;28;20438;-51
2022/10/27 12:12:38;;;;;;;3.90;2.60;;;19.90;99.90;;;;;;5224438;28;20437;-50
2022/10/27 12:15:35;;;;;;;5.80;2.20;;;19.90;99.90;;;;;;5225589;28;20421;-50
2022/10/27 12:18:24;;;;;;;5.90;2.80;;;20.00;99.90;;;;;;5221069;28;20491;-49
2022/10/27 12:21:05;;;;;;;2.67;2.47;;;19.90;99.90;;;;;;5235700;28;20450;-49
2022/10/27 12:23:55;;;;;;;6.43;3.07;;;20.00;99.90;;;;;;5221432;28;21006;-50
2022/10/27 12:26:40;;;;;;;4.13;2.00;;;20.00;99.90;;;;;;5220834;28;20445;-50
2022/10/27 12:29:12;;;;;;;3.40;3.10;;;20.20;99.90;;;;;;5221457;28;20452;-49
2022/10/27 12:31:54;;;;;;;4.43;2.60;;;20.40;99.90;;;;;;5214149;28;20457;-51
2022/10/27 12:34:32;;;;;;;4.67;2.30;;;20.60;99.90;;;;;;5213518;28;20982;-49
2022/10/27 12:37:15;;;;;;;9.53;2.40;;;20.60;99.90;;;;;;5216728;28;20613;-51
2022/10/27 12:39:50;;;;;;;2.93;2.43;;;20.40;99.90;;;;;;5214958;28;20441;-49
2022/10/27 12:42:27;;;;;;;4.70;2.30;;;20.30;99.90;;;;;;5219862;28;20514;-50
2022/10/27 12:45:21;;;;;;;7.73;2.57;;;20.30;99.90;;;;;;5221406;28;20469;-51
2022/10/27 12:48:05;;;;;;;4.83;3.10;;;20.20;99.90;;;;;;5220587;28;20444;-51
2022/10/27 12:51:25;;;;;;;2.13;2.03;;;20.00;99.90;;;;;;5231992;28;20467;-51
2022/10/27 12:54:31;;;;;;;2.23;2.03;;;20.00;99.90;;;;;;5161509;28;21109;-53
2022/10/27 12:57:23;;;;;;;2.83;2.63;;;19.90;99.90;;;;;;5158972;28;21021;-51
2022/10/27 13:00:13;;;;;;;6.10;3.23;;;20.00;99.90;;;;;;5223168;28;20472;-50
2022/10/27 13:03:02;;;;;;;4.80;2.90;;;19.80;99.90;;;;;;5215574;28;20652;-49
2022/10/27 13:05:53;;;;;;;3.57;3.23;;;19.80;99.90;;;;;;5220399;28;20500;-50
2022/10/27 13:09:00;;;;;;;4.23;2.60;;;19.80;99.90;;;;;;5214526;28;20437;-49
2022/10/27 13:11:56;;;;;;;3.10;2.40;;;19.90;99.90;;;;;;5222594;28;20924;-49
2022/10/27 13:15:04;;;;;;;6.67;2.63;;;19.90;99.90;;;;;;5214199;28;20986;-50
2022/10/27 13:17:55;;;;;;;1.80;1.60;;;19.80;99.90;;;;;;5217169;28;20526;-50
2022/10/27 13:20:44;;;;;;;2.37;2.17;;;19.90;99.90;;;;;;5212491;28;20441;-49
2022/10/27 13:23:52;;;;;;;7.20;3.67;;;19.90;99.90;;;;;;5217787;28;20768;-47
2022/10/27 13:26:31;;;;;;;4.07;1.90;;;20.00;99.90;;;;;;5228907;28;20433;-48
2022/10/27 13:29:17;;;;;;;5.93;2.43;;;20.10;99.90;;;;;;5218622;28;20425;-48
2022/10/27 13:32:24;;;;;;;5.20;2.37;;;20.10;99.90;;;;;;5221874;28;20469;-48
2022/10/27 13:35:00;;;;;;;6.03;2.17;;;20.20;99.90;;;;;;5212649;28;20429;-49